首页
METAR-TAF:

METAR-TAF

机场 :

揭阳潮汕国际机场

汕头, 中华人民共和国

纬度: 23-24N, 经度: 116-41E, 海拔: 3米

当前天气观测

该预报发布于32分钟前的01:00 UTC
风速4节,风向,在东北东南之间变化
温度 24°C
湿度 78%
气压 1012 hPa
能见度10公里或以上
多云层高于3000英尺

METAR: ZGOW 230100Z 10002MPS 040V140 9999 BKN030 24/20 Q1012 NOSIG

时间: 09:32 (01:32 UTC)

预报

该预报发布于6小时和30分钟前的19:02 UTC
预报有效从23日的 00点(UTC)到 23日的 24点(UTC)
风速6节,风向
能見度: 6000
少量云层高于2000英尺
多云层高于4000英尺

TAF: ZGOW 221902Z 2300/2324 10003MPS 6000 FEW020 BKN040 TX29/2306Z TN22/2322Z

超过4000个机场的气象观测和天气预报(METAR&TAF报告)。

可查询的气象台以黄色和红色小点在地图上表示。

将鼠标移到小点上方,可查看气象台名称。

然后点击查看天气观测和预报。

如需切换地图:点击带黑十字的绿色按钮放大地图;点击带横线的绿色按钮缩小地图;或者点击绿色箭头查看邻近地区的地图。


METAR-TAF: